createdAt,value
2019-05-07T00:00:15.076Z,62.50
2019-05-07T00:06:23.107Z,62.76
2019-05-07T00:12:29.080Z,63.26
2019-05-07T00:18:34.977Z,63.99
2019-05-07T00:24:42.638Z,64.68
2019-05-07T00:30:48.538Z,64.97
2019-05-07T00:37:06.727Z,66.40
2019-05-07T00:43:22.518Z,67.15
2019-05-07T00:49:29.469Z,67.36
2019-05-07T00:55:35.628Z,67.61
2019-05-07T01:01:43.253Z,67.14
2019-05-07T01:07:49.279Z,66.48
2019-05-07T01:13:55.168Z,66.73
2019-05-07T01:20:02.904Z,67.60
2019-05-07T01:26:09.431Z,68.00
2019-05-07T01:32:36.570Z,68.27
2019-05-07T01:38:43.192Z,68.34
2019-05-07T01:44:48.974Z,68.52
2019-05-07T01:50:54.748Z,68.68
2019-05-07T01:57:02.621Z,68.90
2019-05-07T02:03:26.736Z,69.33
2019-05-07T02:09:51.993Z,69.47
2019-05-07T02:16:01.231Z,69.82
2019-05-07T02:22:05.298Z,69.73
2019-05-07T02:28:12.854Z,70.19
2019-05-07T02:34:23.208Z,69.90
2019-05-07T02:40:36.147Z,70.05
2019-05-07T02:53:33.730Z,70.40
2019-05-07T02:59:39.235Z,70.77
2019-05-07T03:05:45.100Z,70.85
2019-05-07T03:11:52.902Z,70.73
2019-05-07T03:17:58.442Z,70.84
2019-05-07T03:24:14.079Z,70.92
2019-05-07T03:30:46.072Z,70.94
2019-05-07T03:36:56.563Z,70.86
2019-05-07T03:43:02.850Z,70.98
2019-05-07T03:49:09.688Z,71.19
2019-05-07T03:55:16.258Z,71.57
2019-05-07T04:01:24.074Z,71.57
2019-05-07T04:07:29.587Z,71.59
2019-05-07T04:13:35.634Z,71.93
2019-05-07T04:19:44.129Z,71.89
2019-05-07T04:26:04.408Z,71.99
2019-05-07T04:32:10.485Z,71.78
2019-05-07T04:38:17.564Z,71.84
2019-05-07T04:44:23.741Z,71.87
2019-05-07T04:50:39.411Z,71.74
2019-05-07T04:56:39.610Z,71.73
2019-05-07T05:03:03.433Z,71.68
2019-05-07T05:09:12.347Z,71.61
2019-05-07T05:15:18.547Z,71.48
2019-05-07T05:21:33.625Z,71.24
2019-05-07T05:27:40.051Z,70.90
2019-05-07T05:33:45.981Z,70.76
2019-05-07T05:40:04.799Z,70.76
2019-05-07T05:46:02.698Z,70.85
2019-05-07T05:52:19.035Z,70.76
2019-05-07T05:58:39.409Z,70.30
2019-05-07T06:04:53.677Z,69.58
2019-05-07T06:11:23.347Z,68.96
2019-05-07T06:17:49.128Z,68.48
2019-05-07T06:23:57.850Z,68.14
2019-05-07T06:30:05.079Z,67.73
2019-05-07T06:36:12.549Z,67.28
2019-05-07T06:42:49.773Z,66.73
2019-05-07T06:48:56.875Z,66.26
2019-05-07T06:55:03.371Z,65.90
2019-05-07T07:01:20.111Z,64.59
2019-05-07T07:07:42.233Z,63.52
2019-05-07T07:13:48.079Z,61.85
2019-05-07T07:19:54.155Z,60.50
2019-05-07T07:26:00.013Z,59.46
2019-05-07T07:32:07.090Z,57.92
2019-05-07T07:38:32.699Z,57.38
2019-05-07T07:44:38.164Z,56.07
2019-05-07T07:50:44.115Z,55.58
2019-05-07T07:57:05.111Z,55.17
2019-05-07T08:03:13.386Z,53.31
2019-05-07T08:09:19.400Z,53.00
2019-05-07T08:15:25.443Z,51.69
2019-05-07T08:21:33.202Z,51.05
2019-05-07T08:27:39.212Z,50.58
2019-05-07T08:33:55.198Z,49.38
2019-05-07T08:40:03.125Z,49.26
2019-05-07T08:46:32.860Z,49.42
2019-05-07T08:52:38.857Z,49.51
2019-05-07T08:58:44.987Z,51.13
2019-05-07T09:04:52.317Z,52.54
2019-05-07T09:10:58.515Z,53.59
2019-05-07T09:17:04.779Z,58.68
2019-05-07T09:23:12.258Z,58.37
2019-05-07T09:29:43.309Z,57.76
2019-05-07T09:35:52.882Z,57.39
2019-05-07T09:42:02.166Z,55.00
2019-05-07T09:48:06.805Z,52.88
2019-05-07T09:54:12.799Z,52.13
2019-05-07T10:00:20.189Z,51.87
2019-05-07T10:06:26.205Z,50.75
2019-05-07T10:12:42.063Z,50.22
2019-05-07T10:18:47.948Z,49.84
2019-05-07T10:24:53.840Z,49.08
2019-05-07T10:30:59.740Z,49.14
2019-05-07T10:37:05.846Z,49.31
2019-05-07T10:43:12.208Z,48.83
2019-05-07T10:49:31.831Z,47.81
2019-05-07T10:55:37.799Z,47.13
2019-05-07T11:01:52.320Z,45.72
2019-05-07T11:07:58.302Z,44.79
2019-05-07T11:14:04.746Z,45.13
2019-05-07T11:20:12.816Z,45.68
2019-05-07T11:26:19.470Z,43.80
2019-05-07T11:32:25.311Z,43.88
2019-05-07T11:38:33.343Z,44.57
2019-05-07T11:44:39.969Z,46.43
2019-05-07T11:51:03.089Z,47.83
2019-05-07T11:57:02.490Z,47.44
2019-05-07T12:03:08.447Z,46.12
2019-05-07T12:09:16.089Z,46.62
2019-05-07T12:15:22.724Z,44.69
2019-05-07T12:21:28.550Z,45.06
2019-05-07T12:27:34.381Z,44.69
2019-05-07T12:33:59.349Z,45.33
2019-05-07T12:40:07.228Z,45.53
2019-05-07T12:46:13.168Z,44.32
2019-05-07T12:52:31.905Z,43.17
2019-05-07T12:58:37.539Z,42.92
2019-05-07T13:04:44.666Z,41.74
2019-05-07T13:10:51.870Z,41.90
2019-05-07T13:16:57.988Z,42.18
2019-05-07T13:23:04.307Z,42.21
2019-05-07T13:29:10.121Z,41.57
2019-05-07T13:35:16.552Z,41.27
2019-05-07T13:41:44.122Z,40.62
2019-05-07T13:47:55.876Z,40.81
2019-05-07T13:54:02.221Z,41.38
2019-05-07T14:00:14.116Z,40.91
2019-05-07T14:06:37.462Z,40.38
2019-05-07T14:12:43.924Z,40.10
2019-05-07T14:18:49.998Z,38.77
2019-05-07T14:24:56.156Z,35.12
2019-05-07T14:31:02.070Z,33.76
2019-05-07T14:37:25.346Z,34.25
2019-05-07T14:43:38.183Z,35.29
2019-05-07T14:49:44.392Z,36.98
2019-05-07T14:55:50.251Z,36.63
2019-05-07T15:01:56.233Z,35.12
2019-05-07T15:08:10.475Z,35.97
2019-05-07T15:14:12.008Z,36.67
2019-05-07T15:20:18.534Z,36.54
2019-05-07T15:26:24.618Z,36.60
2019-05-07T15:32:32.337Z,36.66
2019-05-07T15:38:38.200Z,36.25
2019-05-07T15:44:44.009Z,35.95
2019-05-07T15:50:51.855Z,36.24
2019-05-07T15:57:01.807Z,35.59
2019-05-07T16:03:12.425Z,35.09
2019-05-07T16:09:18.250Z,34.58
2019-05-07T16:15:24.332Z,33.78
2019-05-07T16:21:32.298Z,31.92
2019-05-07T16:27:42.609Z,32.98
2019-05-07T16:33:48.377Z,33.51
2019-05-07T16:39:54.317Z,34.11
2019-05-07T16:46:02.304Z,33.41
2019-05-07T16:52:08.091Z,33.63
2019-05-07T16:58:35.071Z,33.49
2019-05-07T17:04:43.055Z,33.53
2019-05-07T17:10:48.862Z,34.57
2019-05-07T17:16:54.877Z,34.38
2019-05-07T17:23:02.750Z,34.95
2019-05-07T17:29:08.252Z,35.44
2019-05-07T17:35:14.809Z,36.13
2019-05-07T17:41:24.806Z,35.79
2019-05-07T17:47:28.388Z,35.93
2019-05-07T17:53:34.184Z,36.53
2019-05-07T17:59:42.107Z,37.41
2019-05-07T18:05:47.845Z,37.68
2019-05-07T18:11:53.815Z,38.59
2019-05-07T18:18:04.413Z,39.59
2019-05-07T18:24:15.910Z,41.15
2019-05-07T18:30:18.835Z,41.99
2019-05-07T18:36:24.919Z,42.92
2019-05-07T18:42:32.709Z,43.53
2019-05-07T18:48:39.435Z,44.90
2019-05-07T18:54:47.932Z,45.95
2019-05-07T19:00:56.828Z,47.54
2019-05-07T19:07:03.084Z,48.60
2019-05-07T19:13:09.211Z,49.68
2019-05-07T19:19:15.657Z,50.24
2019-05-07T19:25:21.500Z,50.40
2019-05-07T19:31:27.689Z,51.74
2019-05-07T19:37:33.633Z,53.18
2019-05-07T19:43:41.781Z,53.88
2019-05-07T19:49:47.501Z,54.36
2019-05-07T19:56:09.030Z,55.83
2019-05-07T20:02:18.200Z,56.23
2019-05-07T20:08:24.367Z,56.80
2019-05-07T20:14:32.590Z,57.73
2019-05-07T20:20:38.421Z,58.58
2019-05-07T20:26:44.542Z,59.49
2019-05-07T20:32:52.303Z,59.90
2019-05-07T20:38:59.123Z,60.12
2019-05-07T20:45:05.848Z,60.64
2019-05-07T20:51:12.710Z,61.16
2019-05-07T20:57:22.469Z,61.52
2019-05-07T21:03:28.543Z,61.64
2019-05-07T21:09:34.379Z,61.95
2019-05-07T21:15:41.897Z,62.21
2019-05-07T21:21:47.893Z,62.91
2019-05-07T21:27:55.990Z,63.11
2019-05-07T21:34:03.109Z,63.31
2019-05-07T21:40:09.434Z,63.52
2019-05-07T21:46:15.410Z,63.80
2019-05-07T21:52:22.176Z,64.06
2019-05-07T21:58:35.338Z,64.28
2019-05-07T22:04:42.165Z,64.71
2019-05-07T22:10:48.527Z,64.94
2019-05-07T22:16:54.698Z,64.85
2019-05-07T22:23:02.712Z,64.52
2019-05-07T22:29:08.302Z,65.01
2019-05-07T22:35:24.125Z,65.25
2019-05-07T22:41:31.878Z,65.42
2019-05-07T22:47:38.087Z,65.39
2019-05-07T22:53:43.918Z,65.08
2019-05-07T22:59:49.940Z,65.21
2019-05-07T23:05:57.365Z,65.40
2019-05-07T23:12:03.127Z,65.38
2019-05-07T23:18:08.869Z,65.36
2019-05-07T23:24:14.986Z,65.29
2019-05-07T23:30:22.354Z,65.52
2019-05-07T23:36:28.313Z,65.51
2019-05-07T23:42:36.732Z,65.54
2019-05-07T23:48:42.771Z,65.51
2019-05-07T23:54:49.032Z,65.54
